createdAt,value
2019-02-27T00:04:34.850Z,99821.75
2019-02-27T00:09:38.825Z,99826.09
2019-02-27T00:14:44.011Z,99813.73
2019-02-27T00:19:49.246Z,99811.30
2019-02-27T00:24:54.428Z,99813.04
2019-02-27T00:30:04.504Z,99808.73
2019-02-27T00:35:08.963Z,99807.59
2019-02-27T00:40:14.115Z,99793.64
2019-02-27T00:45:19.284Z,99799.80
2019-02-27T00:50:24.705Z,99802.02
2019-02-27T00:55:30.623Z,99804.50
2019-02-27T01:00:38.960Z,99806.90
2019-02-27T01:05:43.841Z,99804.59
2019-02-27T01:10:48.934Z,99797.69
2019-02-27T01:15:54.992Z,99796.00
2019-02-27T01:21:00.141Z,99789.42
2019-02-27T01:26:05.297Z,99784.48
2019-02-27T01:31:10.453Z,99782.69
2019-02-27T01:36:15.568Z,99773.16
2019-02-27T01:41:24.353Z,99768.37
2019-02-27T01:46:28.476Z,99754.72
2019-02-27T01:51:34.897Z,99757.77
2019-02-27T01:56:39.975Z,99747.58
2019-02-27T02:01:45.896Z,99735.84
2019-02-27T02:06:51.040Z,99739.20
2019-02-27T02:11:56.193Z,99736.92
2019-02-27T02:17:11.809Z,99728.04
2019-02-27T02:22:32.116Z,99726.86
2019-02-27T02:28:04.192Z,99716.87
2019-02-27T02:33:29.378Z,99715.38
2019-02-27T02:39:19.171Z,99711.83
2019-02-27T02:45:33.076Z,99707.48
2019-02-27T02:51:05.072Z,99701.45
2019-02-27T02:56:25.677Z,99702.66
2019-02-27T03:01:49.392Z,99693.14
2019-02-27T03:07:30.938Z,99693.27
2019-02-27T03:13:14.935Z,99686.13
2019-02-27T03:19:07.415Z,99688.05
2019-02-27T03:24:45.719Z,99682.70
2019-02-27T03:30:34.022Z,99683.20
2019-02-27T03:36:15.300Z,99688.91
2019-02-27T03:41:30.285Z,99686.33
2019-02-27T03:47:08.099Z,99691.32
2019-02-27T03:52:48.984Z,99693.94
2019-02-27T03:58:19.864Z,99696.18
2019-02-27T04:03:57.571Z,99690.75
2019-02-27T04:09:03.327Z,99694.07
2019-02-27T04:14:29.581Z,99688.37
2019-02-27T04:19:39.218Z,99673.39
2019-02-27T04:24:44.714Z,99669.88
2019-02-27T04:29:49.869Z,99663.91
2019-02-27T04:34:56.142Z,99665.22
2019-02-27T04:40:01.296Z,99666.28
2019-02-27T04:45:09.846Z,99661.59
2019-02-27T04:50:15.810Z,99655.12
2019-02-27T04:55:20.983Z,99652.84
2019-02-27T05:00:26.845Z,99648.92
2019-02-27T05:05:32.368Z,99648.59
2019-02-27T05:10:38.245Z,99649.86
2019-02-27T05:15:44.822Z,99646.81
2019-02-27T05:20:50.433Z,99645.68
2019-02-27T05:25:56.373Z,99643.73
2019-02-27T05:31:01.588Z,99638.78
2019-02-27T05:36:06.666Z,99640.57
2019-02-27T05:41:12.090Z,99649.27
2019-02-27T05:46:18.203Z,99653.75
2019-02-27T05:51:23.720Z,99639.28
2019-02-27T05:56:29.223Z,99639.41
2019-02-27T06:01:38.273Z,99648.08
2019-02-27T06:06:45.108Z,99639.78
2019-02-27T06:11:50.116Z,99641.18
2019-02-27T06:16:55.352Z,99628.13
2019-02-27T06:22:00.517Z,99624.70
2019-02-27T06:27:06.847Z,99628.36
2019-02-27T06:32:13.016Z,99623.84
2019-02-27T06:37:19.009Z,99619.91
2019-02-27T06:42:24.205Z,99625.72
2019-02-27T06:47:29.725Z,99629.74
2019-02-27T06:52:34.815Z,99624.96
2019-02-27T06:57:41.267Z,99631.38
2019-02-27T07:02:47.539Z,99633.05
2019-02-27T07:07:52.712Z,99628.54
2019-02-27T07:12:58.736Z,99625.66
2019-02-27T07:18:06.222Z,99615.70
2019-02-27T07:23:11.142Z,99619.36
2019-02-27T07:28:16.587Z,99616.66
2019-02-27T07:33:21.758Z,99609.86
2019-02-27T07:38:26.919Z,99604.30
2019-02-27T07:43:32.075Z,99596.83
2019-02-27T07:48:37.267Z,99594.34
2019-02-27T07:53:42.853Z,99591.69
2019-02-27T07:58:49.088Z,99573.42
2019-02-27T08:03:54.243Z,99574.11
2019-02-27T08:09:03.494Z,99580.41
2019-02-27T08:14:13.012Z,99577.70
2019-02-27T08:19:18.314Z,99568.73
2019-02-27T08:24:24.898Z,99574.00
2019-02-27T08:29:31.162Z,99574.95
2019-02-27T08:34:36.737Z,99575.27
2019-02-27T08:39:42.242Z,99573.86
2019-02-27T08:44:48.598Z,99559.33
2019-02-27T08:49:57.614Z,99558.96
2019-02-27T08:55:05.452Z,99553.69
2019-02-27T09:00:14.446Z,99545.56
2019-02-27T09:05:20.043Z,99548.52
2019-02-27T09:10:29.388Z,99538.67
2019-02-27T09:15:33.114Z,99539.32
2019-02-27T09:20:38.366Z,99533.63
2019-02-27T09:25:43.601Z,99531.08
2019-02-27T09:30:49.617Z,99520.97
2019-02-27T09:35:54.859Z,99509.12
2019-02-27T09:41:00.118Z,99493.65
2019-02-27T09:46:05.498Z,99487.04
2019-02-27T09:51:10.733Z,99487.01
2019-02-27T09:56:17.045Z,99468.67
2019-02-27T10:01:22.698Z,99464.30
2019-02-27T10:06:28.593Z,99467.05
2019-02-27T10:11:33.827Z,99465.13
2019-02-27T10:16:39.064Z,99464.68
2019-02-27T10:21:45.418Z,99463.22
2019-02-27T10:26:53.532Z,99453.51
2019-02-27T10:31:58.271Z,99435.41
2019-02-27T10:37:05.047Z,99430.97
2019-02-27T10:42:10.336Z,99417.54
2019-02-27T10:47:15.965Z,99415.98
2019-02-27T10:52:24.396Z,99416.05
2019-02-27T10:57:31.742Z,99408.17
2019-02-27T11:02:35.345Z,99397.16
2019-02-27T11:07:40.607Z,99382.46
2019-02-27T11:12:45.893Z,99370.59
2019-02-27T11:17:51.970Z,99362.30
2019-02-27T11:22:57.584Z,99352.49
2019-02-27T11:28:02.848Z,99346.55
2019-02-27T11:33:08.466Z,99347.73
2019-02-27T11:38:13.819Z,99341.73
2019-02-27T11:43:19.066Z,99329.02
2019-02-27T11:48:24.332Z,99324.33
2019-02-27T11:53:29.926Z,99324.52
2019-02-27T11:58:38.232Z,99311.38
2019-02-27T12:03:45.726Z,99309.36
2019-02-27T12:08:49.391Z,99308.91
2019-02-27T12:13:55.088Z,99292.52
2019-02-27T12:19:00.330Z,99285.30
2019-02-27T12:24:05.973Z,99273.03
2019-02-27T12:29:11.684Z,99264.83
2019-02-27T12:34:17.297Z,99267.79
2019-02-27T12:39:22.546Z,99264.30
2019-02-27T12:44:28.558Z,99247.86
2019-02-27T12:49:33.834Z,99238.23
2019-02-27T12:54:39.075Z,99229.42
2019-02-27T12:59:44.312Z,99220.08
2019-02-27T13:04:52.484Z,99213.17
2019-02-27T13:09:58.774Z,99198.41
2019-02-27T13:15:06.682Z,99192.33
2019-02-27T13:20:16.853Z,99184.97
2019-02-27T13:25:24.265Z,99173.67
2019-02-27T13:30:29.157Z,99170.77
2019-02-27T13:35:34.765Z,99156.06
2019-02-27T13:40:40.327Z,99148.39
2019-02-27T13:45:47.572Z,99131.25
2019-02-27T13:50:52.553Z,99113.70
2019-02-27T13:55:57.806Z,99108.30
2019-02-27T14:01:03.064Z,99099.37
2019-02-27T14:06:09.327Z,99093.28
2019-02-27T14:11:14.837Z,99084.84
2019-02-27T14:16:20.076Z,99075.98
2019-02-27T14:21:25.349Z,99064.64
2019-02-27T14:26:30.594Z,99057.55
2019-02-27T14:31:36.169Z,99047.89
2019-02-27T14:36:42.499Z,99042.23
2019-02-27T14:41:49.266Z,99047.70
2019-02-27T14:46:56.096Z,99041.47
2019-02-27T14:52:01.728Z,99032.31
2019-02-27T14:57:06.970Z,99018.44
2019-02-27T15:02:12.214Z,99011.61
2019-02-27T15:07:17.565Z,99008.40
2019-02-27T15:12:22.935Z,98992.98
2019-02-27T15:17:28.211Z,98986.92
2019-02-27T15:22:33.699Z,98981.34
2019-02-27T15:27:39.777Z,98966.06
2019-02-27T15:32:45.013Z,98967.98
2019-02-27T15:37:50.253Z,98962.02
2019-02-27T15:42:55.494Z,98958.11
2019-02-27T15:48:00.757Z,98954.30
2019-02-27T15:53:07.217Z,98948.89
2019-02-27T15:58:16.011Z,98942.84
2019-02-27T16:03:22.836Z,98927.27
2019-02-27T16:08:28.628Z,98921.98
2019-02-27T16:13:34.697Z,98922.56
2019-02-27T16:18:40.757Z,98912.61
2019-02-27T16:23:47.479Z,98909.16
2019-02-27T16:28:52.755Z,98905.14
2019-02-27T16:33:58.545Z,98899.34
2019-02-27T16:39:07.639Z,98887.48
2019-02-27T16:44:14.602Z,98884.30
2019-02-27T16:49:19.848Z,98887.89
2019-02-27T16:54:27.266Z,98881.63
2019-02-27T16:59:32.018Z,98883.96
2019-02-27T17:04:37.260Z,98885.27
2019-02-27T17:09:44.615Z,98879.55
2019-02-27T17:14:50.247Z,98870.72
2019-02-27T17:19:59.372Z,98874.99
2019-02-27T17:25:05.051Z,98874.94
2019-02-27T17:30:14.487Z,98869.36
2019-02-27T17:35:20.514Z,98868.54
2019-02-27T17:40:29.067Z,98864.41
2019-02-27T17:45:34.456Z,98861.46
2019-02-27T17:50:39.890Z,98856.03
2019-02-27T17:55:45.181Z,98850.97
2019-02-27T18:00:56.629Z,98853.67
2019-02-27T18:06:02.268Z,98848.09
2019-02-27T18:11:07.803Z,98845.11
2019-02-27T18:16:13.346Z,98838.19
2019-02-27T18:21:19.027Z,98833.71
2019-02-27T18:26:24.609Z,98832.73
2019-02-27T18:31:29.856Z,98824.48
2019-02-27T18:36:42.572Z,98817.13
2019-02-27T18:41:42.353Z,98803.27
2019-02-27T18:46:47.974Z,98796.43
2019-02-27T18:51:53.534Z,98786.75
2019-02-27T18:56:59.092Z,98776.13
2019-02-27T19:02:07.460Z,98775.50
2019-02-27T19:07:13.003Z,98763.21
2019-02-27T19:12:19.097Z,98753.15
2019-02-27T19:17:29.029Z,98749.61
2019-02-27T19:22:32.163Z,98753.48
2019-02-27T19:27:37.706Z,98746.02
2019-02-27T19:32:43.041Z,98744.44
2019-02-27T19:37:48.784Z,98737.09
2019-02-27T19:42:58.872Z,98730.05
2019-02-27T19:48:04.373Z,98720.91
2019-02-27T19:53:09.614Z,98716.70
2019-02-27T19:58:18.187Z,98714.38
2019-02-27T20:03:21.768Z,98717.54
2019-02-27T20:08:27.333Z,98722.63
2019-02-27T20:13:32.672Z,98710.77
2019-02-27T20:18:40.608Z,98691.07
2019-02-27T20:23:46.957Z,98681.89
2019-02-27T20:28:52.591Z,98670.51
2019-02-27T20:33:58.682Z,98663.20
2019-02-27T20:39:05.698Z,98653.11
2019-02-27T20:44:11.794Z,98646.95
2019-02-27T20:49:17.419Z,98644.52
2019-02-27T20:54:24.186Z,98643.27
2019-02-27T20:59:29.449Z,98636.92
2019-02-27T21:04:35.966Z,98627.48
2019-02-27T21:09:42.257Z,98627.27
2019-02-27T21:14:49.110Z,98619.70
2019-02-27T21:19:55.137Z,98603.94
2019-02-27T21:25:00.706Z,98600.23
2019-02-27T21:30:11.172Z,98594.75
2019-02-27T21:35:16.502Z,98588.08
2019-02-27T21:40:22.143Z,98581.45
2019-02-27T21:45:27.678Z,98577.55
2019-02-27T21:50:33.109Z,98581.05
2019-02-27T21:55:39.679Z,98570.87
2019-02-27T22:00:48.020Z,98561.13
2019-02-27T22:05:53.658Z,98555.77
2019-02-27T22:10:59.136Z,98546.13
2019-02-27T22:16:05.937Z,98546.27
2019-02-27T22:21:11.461Z,98546.31
2019-02-27T22:26:17.050Z,98544.91
2019-02-27T22:31:22.444Z,98528.97
2019-02-27T22:36:27.855Z,98520.57
2019-02-27T22:41:33.374Z,98519.98
2019-02-27T22:46:38.640Z,98518.85
2019-02-27T22:51:45.202Z,98504.72
2019-02-27T22:56:52.046Z,98499.08
2019-02-27T23:01:57.868Z,98490.41
2019-02-27T23:07:03.548Z,98493.33
2019-02-27T23:12:09.326Z,98479.09
2019-02-27T23:17:14.931Z,98470.22
2019-02-27T23:22:20.189Z,98464.13
2019-02-27T23:27:26.282Z,98453.00
2019-02-27T23:32:32.452Z,98451.58
2019-02-27T23:37:37.693Z,98441.13
2019-02-27T23:42:43.613Z,98437.82
2019-02-27T23:47:49.520Z,98441.84
2019-02-27T23:52:54.752Z,98434.04
2019-02-27T23:58:00.047Z,98429.72
